sensor_id;sensor_type;location;lat;lon;timestamp;temperature;humidity
10312;DHT22;5201;48.776;9.128;2023-04-24T00:00:46;12.70;99.90
10312;DHT22;5201;48.776;9.128;2023-04-24T00:03:12;12.90;99.90
10312;DHT22;5201;48.776;9.128;2023-04-24T00:05:38;12.30;99.90
10312;DHT22;5201;48.776;9.128;2023-04-24T00:08:05;12.30;99.90
10312;DHT22;5201;48.776;9.128;2023-04-24T00:10:31;12.40;99.90
10312;DHT22;5201;48.776;9.128;2023-04-24T00:12:57;12.30;99.90
10312;DHT22;5201;48.776;9.128;2023-04-24T00:15:23;12.30;99.90
10312;DHT22;5201;48.776;9.128;2023-04-24T00:17:48;12.30;99.90
10312;DHT22;5201;48.776;9.128;2023-04-24T00:20:14;12.20;99.90
10312;DHT22;5201;48.776;9.128;2023-04-24T00:22:40;12.30;99.90
10312;DHT22;5201;48.776;9.128;2023-04-24T00:25:06;12.40;99.90
10312;DHT22;5201;48.776;9.128;2023-04-24T00:27:32;12.40;99.90
10312;DHT22;5201;48.776;9.128;2023-04-24T00:29:58;12.40;99.90
10312;DHT22;5201;48.776;9.128;2023-04-24T00:32:23;12.30;99.90
10312;DHT22;5201;48.776;9.128;2023-04-24T00:34:49;12.20;99.90
10312;DHT22;5201;48.776;9.128;2023-04-24T00:37:15;12.30;99.90
10312;DHT22;5201;48.776;9.128;2023-04-24T00:39:41;13.10;99.90
10312;DHT22;5201;48.776;9.128;2023-04-24T00:42:06;13.50;99.90
10312;DHT22;5201;48.776;9.128;2023-04-24T00:44:35;12.50;99.90
10312;DHT22;5201;48.776;9.128;2023-04-24T00:47:01;12.50;99.90
10312;DHT22;5201;48.776;9.128;2023-04-24T00:49:27;12.50;99.90
10312;DHT22;5201;48.776;9.128;2023-04-24T00:51:52;12.50;99.90
10312;DHT22;5201;48.776;9.128;2023-04-24T00:54:19;12.50;99.90
10312;DHT22;5201;48.776;9.128;2023-04-24T00:56:45;12.50;99.90
10312;DHT22;5201;48.776;9.128;2023-04-24T00:59:12;12.70;99.90
10312;DHT22;5201;48.776;9.128;2023-04-24T01:01:38;12.50;99.90
10312;DHT22;5201;48.776;9.128;2023-04-24T01:04:07;12.50;99.90
10312;DHT22;5201;48.776;9.128;2023-04-24T01:06:35;12.30;99.90
10312;DHT22;5201;48.776;9.128;2023-04-24T01:09:03;12.20;99.90
10312;DHT22;5201;48.776;9.128;2023-04-24T01:11:30;12.90;99.90
10312;DHT22;5201;48.776;9.128;2023-04-24T01:13:56;12.50;99.90
10312;DHT22;5201;48.776;9.128;2023-04-24T01:16:23;12.30;99.90
10312;DHT22;5201;48.776;9.128;2023-04-24T01:18:48;13.10;99.90
10312;DHT22;5201;48.776;9.128;2023-04-24T01:21:15;12.50;99.90
10312;DHT22;5201;48.776;9.128;2023-04-24T01:23:45;12.60;99.90
10312;DHT22;5201;48.776;9.128;2023-04-24T01:26:12;12.60;99.90
10312;DHT22;5201;48.776;9.128;2023-04-24T01:28:38;13.20;99.90
10312;DHT22;5201;48.776;9.128;2023-04-24T01:31:04;12.40;99.90
10312;DHT22;5201;48.776;9.128;2023-04-24T01:33:29;12.50;99.90
10312;DHT22;5201;48.776;9.128;2023-04-24T01:35:55;12.40;99.90
10312;DHT22;5201;48.776;9.128;2023-04-24T01:38:21;12.40;99.90
10312;DHT22;5201;48.776;9.128;2023-04-24T01:40:46;12.80;99.90
10312;DHT22;5201;48.776;9.128;2023-04-24T01:43:13;12.20;99.90
10312;DHT22;5201;48.776;9.128;2023-04-24T01:45:38;12.00;99.90
10312;DHT22;5201;48.776;9.128;2023-04-24T01:48:04;11.90;99.90
10312;DHT22;5201;48.776;9.128;2023-04-24T01:50:30;12.00;99.90
10312;DHT22;5201;48.776;9.128;2023-04-24T01:52:56;12.00;99.90
10312;DHT22;5201;48.776;9.128;2023-04-24T01:55:22;12.10;99.90
10312;DHT22;5201;48.776;9.128;2023-04-24T01:57:47;12.20;99.90
10312;DHT22;5201;48.776;9.128;2023-04-24T02:00:14;12.70;99.90
10312;DHT22;5201;48.776;9.128;2023-04-24T02:02:40;12.30;99.90
10312;DHT22;5201;48.776;9.128;2023-04-24T02:05:07;12.30;99.90
10312;DHT22;5201;48.776;9.128;2023-04-24T02:07:33;12.30;99.90
10312;DHT22;5201;48.776;9.128;2023-04-24T02:09:59;12.30;99.90
10312;DHT22;5201;48.776;9.128;2023-04-24T02:12:24;12.30;99.90
10312;DHT22;5201;48.776;9.128;2023-04-24T02:14:50;12.30;99.90
10312;DHT22;5201;48.776;9.128;2023-04-24T02:17:16;12.30;99.90
10312;DHT22;5201;48.776;9.128;2023-04-24T02:19:42;12.20;99.90
10312;DHT22;5201;48.776;9.128;2023-04-24T02:22:07;12.30;99.90
10312;DHT22;5201;48.776;9.128;2023-04-24T02:24:33;12.10;99.90
10312;DHT22;5201;48.776;9.128;2023-04-24T02:26:58;12.10;99.90
10312;DHT22;5201;48.776;9.128;2023-04-24T02:29:25;12.10;99.90
10312;DHT22;5201;48.776;9.128;2023-04-24T02:31:51;12.10;99.90
10312;DHT22;5201;48.776;9.128;2023-04-24T02:34:16;12.10;99.90
10312;DHT22;5201;48.776;9.128;2023-04-24T02:36:42;12.20;99.90
10312;DHT22;5201;48.776;9.128;2023-04-24T02:39:07;12.70;99.90
10312;DHT22;5201;48.776;9.128;2023-04-24T02:41:33;12.30;99.90
10312;DHT22;5201;48.776;9.128;2023-04-24T02:43:59;12.40;99.90
10312;DHT22;5201;48.776;9.128;2023-04-24T02:46:25;12.40;99.90
10312;DHT22;5201;48.776;9.128;2023-04-24T02:48:51;12.40;99.90
10312;DHT22;5201;48.776;9.128;2023-04-24T02:51:16;12.40;99.90
10312;DHT22;5201;48.776;9.128;2023-04-24T02:53:42;12.40;99.90
10312;DHT22;5201;48.776;9.128;2023-04-24T02:56:07;12.30;99.90
10312;DHT22;5201;48.776;9.128;2023-04-24T02:58:33;12.30;99.90
10312;DHT22;5201;48.776;9.128;2023-04-24T03:00:59;12.20;99.90
10312;DHT22;5201;48.776;9.128;2023-04-24T03:03:25;11.90;99.90
10312;DHT22;5201;48.776;9.128;2023-04-24T03:05:51;12.00;99.90
10312;DHT22;5201;48.776;9.128;2023-04-24T03:08:17;12.10;99.90
10312;DHT22;5201;48.776;9.128;2023-04-24T03:10:43;12.30;99.90
10312;DHT22;5201;48.776;9.128;2023-04-24T03:13:08;12.40;99.90
10312;DHT22;5201;48.776;9.128;2023-04-24T03:15:34;12.10;99.90
10312;DHT22;5201;48.776;9.128;2023-04-24T03:18:00;12.00;99.90
10312;DHT22;5201;48.776;9.128;2023-04-24T03:20:26;12.00;99.90
10312;DHT22;5201;48.776;9.128;2023-04-24T03:22:51;12.10;99.90
10312;DHT22;5201;48.776;9.128;2023-04-24T03:25:17;12.10;99.90
10312;DHT22;5201;48.776;9.128;2023-04-24T03:27:43;11.90;99.90
10312;DHT22;5201;48.776;9.128;2023-04-24T03:30:09;11.80;99.90
10312;DHT22;5201;48.776;9.128;2023-04-24T03:32:34;11.80;99.90
10312;DHT22;5201;48.776;9.128;2023-04-24T03:35:00;11.70;99.90
10312;DHT22;5201;48.776;9.128;2023-04-24T03:37:26;12.20;99.90
10312;DHT22;5201;48.776;9.128;2023-04-24T03:39:52;11.40;99.90
10312;DHT22;5201;48.776;9.128;2023-04-24T03:42:18;11.50;99.90
10312;DHT22;5201;48.776;9.128;2023-04-24T03:44:43;11.60;99.90
10312;DHT22;5201;48.776;9.128;2023-04-24T03:47:09;11.50;99.90
10312;DHT22;5201;48.776;9.128;2023-04-24T03:49:35;11.40;99.90
10312;DHT22;5201;48.776;9.128;2023-04-24T03:52:01;11.40;99.90
10312;DHT22;5201;48.776;9.128;2023-04-24T03:54:26;11.40;99.90
10312;DHT22;5201;48.776;9.128;2023-04-24T03:56:52;11.30;99.90
10312;DHT22;5201;48.776;9.128;2023-04-24T03:59:18;11.30;99.90
10312;DHT22;5201;48.776;9.128;2023-04-24T04:01:43;11.20;99.90
10312;DHT22;5201;48.776;9.128;2023-04-24T04:04:09;11.30;99.90
10312;DHT22;5201;48.776;9.128;2023-04-24T04:06:35;11.40;99.90
10312;DHT22;5201;48.776;9.128;2023-04-24T04:09:02;11.30;99.90
10312;DHT22;5201;48.776;9.128;2023-04-24T04:11:28;11.40;99.90
10312;DHT22;5201;48.776;9.128;2023-04-24T04:13:54;11.40;99.90
10312;DHT22;5201;48.776;9.128;2023-04-24T04:16:20;11.50;99.90
10312;DHT22;5201;48.776;9.128;2023-04-24T04:18:46;11.50;99.90
10312;DHT22;5201;48.776;9.128;2023-04-24T04:21:12;11.60;99.90
10312;DHT22;5201;48.776;9.128;2023-04-24T04:23:37;11.70;99.90
10312;DHT22;5201;48.776;9.128;2023-04-24T04:26:03;11.70;99.90
10312;DHT22;5201;48.776;9.128;2023-04-24T04:28:29;11.80;99.90
10312;DHT22;5201;48.776;9.128;2023-04-24T04:30:57;11.90;99.90
10312;DHT22;5201;48.776;9.128;2023-04-24T04:33:24;11.60;99.90
10312;DHT22;5201;48.776;9.128;2023-04-24T04:35:50;11.90;99.90
10312;DHT22;5201;48.776;9.128;2023-04-24T04:38:22;11.40;99.90
10312;DHT22;5201;48.776;9.128;2023-04-24T04:40:48;11.20;99.90
10312;DHT22;5201;48.776;9.128;2023-04-24T04:43:14;11.10;99.90
10312;DHT22;5201;48.776;9.128;2023-04-24T04:45:43;11.00;99.90
10312;DHT22;5201;48.776;9.128;2023-04-24T04:48:09;11.00;99.90
10312;DHT22;5201;48.776;9.128;2023-04-24T04:50:38;11.80;99.90
10312;DHT22;5201;48.776;9.128;2023-04-24T04:53:03;11.10;99.90
10312;DHT22;5201;48.776;9.128;2023-04-24T04:55:29;11.10;99.90
10312;DHT22;5201;48.776;9.128;2023-04-24T04:57:55;11.00;99.90
10312;DHT22;5201;48.776;9.128;2023-04-24T05:00:21;11.20;99.90
10312;DHT22;5201;48.776;9.128;2023-04-24T05:02:47;11.10;99.90
10312;DHT22;5201;48.776;9.128;2023-04-24T05:05:12;11.20;99.90
10312;DHT22;5201;48.776;9.128;2023-04-24T05:07:38;12.00;99.90
10312;DHT22;5201;48.776;9.128;2023-04-24T05:10:04;11.10;99.90
10312;DHT22;5201;48.776;9.128;2023-04-24T05:12:30;11.00;99.90
10312;DHT22;5201;48.776;9.128;2023-04-24T05:14:55;10.90;99.90
10312;DHT22;5201;48.776;9.128;2023-04-24T05:17:21;10.80;99.90
10312;DHT22;5201;48.776;9.128;2023-04-24T05:19:47;10.80;99.90
10312;DHT22;5201;48.776;9.128;2023-04-24T05:22:13;10.90;99.90
10312;DHT22;5201;48.776;9.128;2023-04-24T05:24:38;11.00;99.90
10312;DHT22;5201;48.776;9.128;2023-04-24T05:27:04;11.00;99.90
10312;DHT22;5201;48.776;9.128;2023-04-24T05:29:30;11.00;99.90
10312;DHT22;5201;48.776;9.128;2023-04-24T05:31:57;11.90;99.90
10312;DHT22;5201;48.776;9.128;2023-04-24T05:34:23;11.10;99.90
10312;DHT22;5201;48.776;9.128;2023-04-24T05:36:49;11.20;99.90
10312;DHT22;5201;48.776;9.128;2023-04-24T05:39:16;11.60;99.90
10312;DHT22;5201;48.776;9.128;2023-04-24T05:41:42;11.20;99.90
10312;DHT22;5201;48.776;9.128;2023-04-24T05:44:07;11.20;99.90
10312;DHT22;5201;48.776;9.128;2023-04-24T05:46:33;11.30;99.90
10312;DHT22;5201;48.776;9.128;2023-04-24T05:48:58;11.30;99.90
10312;DHT22;5201;48.776;9.128;2023-04-24T05:51:24;11.30;99.90
10312;DHT22;5201;48.776;9.128;2023-04-24T05:53:51;11.40;99.90
10312;DHT22;5201;48.776;9.128;2023-04-24T05:56:17;11.40;99.90
10312;DHT22;5201;48.776;9.128;2023-04-24T05:58:43;11.40;99.90
10312;DHT22;5201;48.776;9.128;2023-04-24T06:01:08;12.00;99.90
10312;DHT22;5201;48.776;9.128;2023-04-24T06:03:34;11.40;99.90
10312;DHT22;5201;48.776;9.128;2023-04-24T06:06:00;11.50;99.90
10312;DHT22;5201;48.776;9.128;2023-04-24T06:08:26;11.50;99.90
10312;DHT22;5201;48.776;9.128;2023-04-24T06:10:51;11.50;99.90
10312;DHT22;5201;48.776;9.128;2023-04-24T06:13:17;11.80;99.90
10312;DHT22;5201;48.776;9.128;2023-04-24T06:15:43;11.60;99.90
10312;DHT22;5201;48.776;9.128;2023-04-24T06:18:09;11.70;99.90
10312;DHT22;5201;48.776;9.128;2023-04-24T06:20:35;12.00;99.90
10312;DHT22;5201;48.776;9.128;2023-04-24T06:23:01;12.00;99.90
10312;DHT22;5201;48.776;9.128;2023-04-24T06:25:28;13.00;99.90
10312;DHT22;5201;48.776;9.128;2023-04-24T06:27:54;14.50;99.90
10312;DHT22;5201;48.776;9.128;2023-04-24T06:30:20;15.90;99.90
10312;DHT22;5201;48.776;9.128;2023-04-24T06:32:46;17.20;99.90
10312;DHT22;5201;48.776;9.128;2023-04-24T06:35:11;18.30;99.90
10312;DHT22;5201;48.776;9.128;2023-04-24T06:37:39;18.60;99.90
10312;DHT22;5201;48.776;9.128;2023-04-24T06:40:06;19.10;99.90
10312;DHT22;5201;48.776;9.128;2023-04-24T06:42:31;19.50;99.90
10312;DHT22;5201;48.776;9.128;2023-04-24T06:44:57;20.00;99.90
10312;DHT22;5201;48.776;9.128;2023-04-24T06:49:55;20.40;99.90
10312;DHT22;5201;48.776;9.128;2023-04-24T06:52:21;20.10;99.90
10312;DHT22;5201;48.776;9.128;2023-04-24T06:54:46;20.10;99.90
10312;DHT22;5201;48.776;9.128;2023-04-24T06:57:12;19.80;99.90
10312;DHT22;5201;48.776;9.128;2023-04-24T06:59:38;19.30;99.90
10312;DHT22;5201;48.776;9.128;2023-04-24T07:02:03;18.70;99.90
10312;DHT22;5201;48.776;9.128;2023-04-24T07:04:29;18.40;99.90
10312;DHT22;5201;48.776;9.128;2023-04-24T07:06:55;18.60;99.90
10312;DHT22;5201;48.776;9.128;2023-04-24T07:09:23;18.60;99.90
10312;DHT22;5201;48.776;9.128;2023-04-24T07:11:51;18.20;99.90
10312;DHT22;5201;48.776;9.128;2023-04-24T07:14:17;17.50;99.90
10312;DHT22;5201;48.776;9.128;2023-04-24T07:16:43;16.60;99.90
10312;DHT22;5201;48.776;9.128;2023-04-24T07:19:08;15.80;99.90
10312;DHT22;5201;48.776;9.128;2023-04-24T07:21:34;15.50;99.90
10312;DHT22;5201;48.776;9.128;2023-04-24T07:24:00;14.40;99.90
10312;DHT22;5201;48.776;9.128;2023-04-24T07:26:27;13.80;99.90
10312;DHT22;5201;48.776;9.128;2023-04-24T07:28:53;14.10;99.90
10312;DHT22;5201;48.776;9.128;2023-04-24T07:31:18;13.20;99.90
10312;DHT22;5201;48.776;9.128;2023-04-24T07:33:44;13.40;99.90
10312;DHT22;5201;48.776;9.128;2023-04-24T07:36:10;15.70;99.90
10312;DHT22;5201;48.776;9.128;2023-04-24T07:38:41;15.00;99.90
10312;DHT22;5201;48.776;9.128;2023-04-24T07:41:07;15.50;99.90
10312;DHT22;5201;48.776;9.128;2023-04-24T07:43:33;15.60;99.90
10312;DHT22;5201;48.776;9.128;2023-04-24T07:45:58;15.40;99.90
10312;DHT22;5201;48.776;9.128;2023-04-24T07:48:25;15.10;99.90
10312;DHT22;5201;48.776;9.128;2023-04-24T07:50:52;14.70;99.90
10312;DHT22;5201;48.776;9.128;2023-04-24T07:53:17;14.50;99.90
10312;DHT22;5201;48.776;9.128;2023-04-24T07:55:43;14.60;99.90
10312;DHT22;5201;48.776;9.128;2023-04-24T07:58:09;14.30;99.90
10312;DHT22;5201;48.776;9.128;2023-04-24T08:00:35;14.70;99.90
10312;DHT22;5201;48.776;9.128;2023-04-24T08:03:00;17.20;99.90
10312;DHT22;5201;48.776;9.128;2023-04-24T08:05:26;14.50;99.90
10312;DHT22;5201;48.776;9.128;2023-04-24T08:07:54;13.80;99.90
10312;DHT22;5201;48.776;9.128;2023-04-24T08:10:21;13.60;99.90
10312;DHT22;5201;48.776;9.128;2023-04-24T08:12:46;13.10;99.90
10312;DHT22;5201;48.776;9.128;2023-04-24T08:15:12;13.10;99.90
10312;DHT22;5201;48.776;9.128;2023-04-24T08:17:37;13.10;99.90
10312;DHT22;5201;48.776;9.128;2023-04-24T08:20:04;13.30;99.90
10312;DHT22;5201;48.776;9.128;2023-04-24T08:22:30;12.80;99.90
10312;DHT22;5201;48.776;9.128;2023-04-24T08:24:56;14.20;99.90
10312;DHT22;5201;48.776;9.128;2023-04-24T08:27:23;14.50;99.90
10312;DHT22;5201;48.776;9.128;2023-04-24T08:29:49;15.20;99.90
10312;DHT22;5201;48.776;9.128;2023-04-24T08:32:15;15.40;99.10
10312;DHT22;5201;48.776;9.128;2023-04-24T08:34:41;15.10;99.00
10312;DHT22;5201;48.776;9.128;2023-04-24T08:37:06;14.80;99.90
10312;DHT22;5201;48.776;9.128;2023-04-24T08:39:32;14.90;99.40
10312;DHT22;5201;48.776;9.128;2023-04-24T08:41:59;14.10;99.80
10312;DHT22;5201;48.776;9.128;2023-04-24T08:44:32;15.10;99.90
10312;DHT22;5201;48.776;9.128;2023-04-24T08:46:58;13.60;99.90
10312;DHT22;5201;48.776;9.128;2023-04-24T08:49:24;13.90;99.90
10312;DHT22;5201;48.776;9.128;2023-04-24T08:51:50;13.20;99.90
10312;DHT22;5201;48.776;9.128;2023-04-24T08:54:18;13.10;99.90
10312;DHT22;5201;48.776;9.128;2023-04-24T08:56:45;13.30;99.90
10312;DHT22;5201;48.776;9.128;2023-04-24T08:59:13;14.80;99.90
10312;DHT22;5201;48.776;9.128;2023-04-24T09:01:40;14.20;99.90
10312;DHT22;5201;48.776;9.128;2023-04-24T09:04:07;14.20;99.90
10312;DHT22;5201;48.776;9.128;2023-04-24T09:06:35;13.90;99.90
10312;DHT22;5201;48.776;9.128;2023-04-24T09:09:02;13.60;99.90
10312;DHT22;5201;48.776;9.128;2023-04-24T09:11:32;13.50;99.90
10312;DHT22;5201;48.776;9.128;2023-04-24T09:13:58;13.30;99.90
10312;DHT22;5201;48.776;9.128;2023-04-24T09:16:25;12.90;99.90
10312;DHT22;5201;48.776;9.128;2023-04-24T09:18:51;12.50;99.90
10312;DHT22;5201;48.776;9.128;2023-04-24T09:21:17;12.40;99.90
10312;DHT22;5201;48.776;9.128;2023-04-24T09:23:45;12.30;99.90
10312;DHT22;5201;48.776;9.128;2023-04-24T09:26:11;12.80;99.90
10312;DHT22;5201;48.776;9.128;2023-04-24T09:28:41;12.70;99.90
10312;DHT22;5201;48.776;9.128;2023-04-24T09:31:09;12.70;99.90
10312;DHT22;5201;48.776;9.128;2023-04-24T09:33:35;12.00;99.90
10312;DHT22;5201;48.776;9.128;2023-04-24T09:36:01;12.00;99.90
10312;DHT22;5201;48.776;9.128;2023-04-24T09:41:06;12.00;99.90
10312;DHT22;5201;48.776;9.128;2023-04-24T09:43:32;12.40;99.90
10312;DHT22;5201;48.776;9.128;2023-04-24T09:46:00;12.90;99.90
10312;DHT22;5201;48.776;9.128;2023-04-24T09:48:36;13.70;99.90
10312;DHT22;5201;48.776;9.128;2023-04-24T09:51:03;13.20;99.90
10312;DHT22;5201;48.776;9.128;2023-04-24T09:53:30;13.30;99.90
10312;DHT22;5201;48.776;9.128;2023-04-24T09:55:56;13.20;99.90
10312;DHT22;5201;48.776;9.128;2023-04-24T09:58:25;13.50;99.90
10312;DHT22;5201;48.776;9.128;2023-04-24T10:00:54;13.50;99.90
10312;DHT22;5201;48.776;9.128;2023-04-24T10:03:20;13.90;99.90
10312;DHT22;5201;48.776;9.128;2023-04-24T10:05:46;13.80;99.90
10312;DHT22;5201;48.776;9.128;2023-04-24T10:08:13;14.10;99.90
10312;DHT22;5201;48.776;9.128;2023-04-24T10:10:40;14.20;99.50
10312;DHT22;5201;48.776;9.128;2023-04-24T10:13:09;14.30;99.40
10312;DHT22;5201;48.776;9.128;2023-04-24T10:15:36;14.60;97.50
10312;DHT22;5201;48.776;9.128;2023-04-24T10:18:02;15.20;98.90
10312;DHT22;5201;48.776;9.128;2023-04-24T10:20:29;14.80;97.90
10312;DHT22;5201;48.776;9.128;2023-04-24T10:22:57;15.00;97.50
10312;DHT22;5201;48.776;9.128;2023-04-24T10:25:25;15.10;97.10
10312;DHT22;5201;48.776;9.128;2023-04-24T10:27:51;14.70;96.60
10312;DHT22;5201;48.776;9.128;2023-04-24T10:30:19;14.90;97.30
10312;DHT22;5201;48.776;9.128;2023-04-24T10:32:45;15.40;97.90
10312;DHT22;5201;48.776;9.128;2023-04-24T10:35:14;14.90;96.20
10312;DHT22;5201;48.776;9.128;2023-04-24T10:37:44;14.30;97.20
10312;DHT22;5201;48.776;9.128;2023-04-24T10:40:12;14.00;97.40
10312;DHT22;5201;48.776;9.128;2023-04-24T10:42:41;14.00;98.30
10312;DHT22;5201;48.776;9.128;2023-04-24T10:45:20;14.10;97.70
10312;DHT22;5201;48.776;9.128;2023-04-24T10:48:04;14.40;97.70
10312;DHT22;5201;48.776;9.128;2023-04-24T10:50:46;14.10;97.60
10312;DHT22;5201;48.776;9.128;2023-04-24T10:53:17;13.80;98.20
10312;DHT22;5201;48.776;9.128;2023-04-24T10:58:23;13.50;98.60
10312;DHT22;5201;48.776;9.128;2023-04-24T11:00:57;13.60;98.90
10312;DHT22;5201;48.776;9.128;2023-04-24T11:03:33;13.90;98.50
10312;DHT22;5201;48.776;9.128;2023-04-24T11:06:05;14.00;98.30
10312;DHT22;5201;48.776;9.128;2023-04-24T11:11:03;14.00;98.70
10312;DHT22;5201;48.776;9.128;2023-04-24T11:16:25;13.40;99.00
10312;DHT22;5201;48.776;9.128;2023-04-24T11:18:57;13.80;99.10
10312;DHT22;5201;48.776;9.128;2023-04-24T11:21:25;13.70;98.90
10312;DHT22;5201;48.776;9.128;2023-04-24T11:23:51;13.60;98.60
10312;DHT22;5201;48.776;9.128;2023-04-24T11:26:19;14.30;98.70
10312;DHT22;5201;48.776;9.128;2023-04-24T11:28:50;13.70;98.20
10312;DHT22;5201;48.776;9.128;2023-04-24T11:31:37;13.70;98.60
10312;DHT22;5201;48.776;9.128;2023-04-24T11:34:11;13.90;97.90
10312;DHT22;5201;48.776;9.128;2023-04-24T11:36:37;13.90;97.80
10312;DHT22;5201;48.776;9.128;2023-04-24T11:39:03;14.90;98.60
10312;DHT22;5201;48.776;9.128;2023-04-24T11:41:29;14.20;98.30
10312;DHT22;5201;48.776;9.128;2023-04-24T11:43:56;14.30;98.10
10312;DHT22;5201;48.776;9.128;2023-04-24T11:46:22;14.50;98.10
10312;DHT22;5201;48.776;9.128;2023-04-24T11:48:47;14.10;98.00
10312;DHT22;5201;48.776;9.128;2023-04-24T11:51:14;13.70;98.40
10312;DHT22;5201;48.776;9.128;2023-04-24T11:53:40;13.10;99.10
10312;DHT22;5201;48.776;9.128;2023-04-24T11:56:06;12.80;99.90
10312;DHT22;5201;48.776;9.128;2023-04-24T11:58:38;13.00;99.90
10312;DHT22;5201;48.776;9.128;2023-04-24T12:01:04;13.50;99.90
10312;DHT22;5201;48.776;9.128;2023-04-24T12:03:31;14.00;99.90
10312;DHT22;5201;48.776;9.128;2023-04-24T12:06:14;14.60;99.40
10312;DHT22;5201;48.776;9.128;2023-04-24T12:08:40;14.90;98.60
10312;DHT22;5201;48.776;9.128;2023-04-24T12:11:07;14.40;98.70
10312;DHT22;5201;48.776;9.128;2023-04-24T12:13:33;14.40;98.30
10312;DHT22;5201;48.776;9.128;2023-04-24T12:16:01;14.10;98.90
10312;DHT22;5201;48.776;9.128;2023-04-24T12:18:27;13.70;98.60
10312;DHT22;5201;48.776;9.128;2023-04-24T12:20:52;13.50;98.60
10312;DHT22;5201;48.776;9.128;2023-04-24T12:23:37;13.70;98.60
10312;DHT22;5201;48.776;9.128;2023-04-24T12:26:04;13.50;99.00
10312;DHT22;5201;48.776;9.128;2023-04-24T12:28:37;13.30;98.80
10312;DHT22;5201;48.776;9.128;2023-04-24T12:31:03;13.50;98.80
10312;DHT22;5201;48.776;9.128;2023-04-24T12:33:33;14.30;98.90
10312;DHT22;5201;48.776;9.128;2023-04-24T12:35:59;14.10;98.70
10312;DHT22;5201;48.776;9.128;2023-04-24T12:38:26;13.60;97.80
10312;DHT22;5201;48.776;9.128;2023-04-24T12:41:07;13.60;98.40
10312;DHT22;5201;48.776;9.128;2023-04-24T12:43:33;13.80;98.50
10312;DHT22;5201;48.776;9.128;2023-04-24T12:45:59;14.00;98.50
10312;DHT22;5201;48.776;9.128;2023-04-24T12:50:52;14.20;98.20
10312;DHT22;5201;48.776;9.128;2023-04-24T12:53:18;14.20;98.10
10312;DHT22;5201;48.776;9.128;2023-04-24T12:55:44;14.50;98.20
10312;DHT22;5201;48.776;9.128;2023-04-24T12:58:20;13.90;97.70
10312;DHT22;5201;48.776;9.128;2023-04-24T13:00:46;13.50;98.40
10312;DHT22;5201;48.776;9.128;2023-04-24T13:03:13;13.10;99.10
10312;DHT22;5201;48.776;9.128;2023-04-24T13:05:42;13.00;99.90
10312;DHT22;5201;48.776;9.128;2023-04-24T13:08:08;12.90;99.90
10312;DHT22;5201;48.776;9.128;2023-04-24T13:10:34;13.00;99.90
10312;DHT22;5201;48.776;9.128;2023-04-24T13:13:00;13.80;99.90
10312;DHT22;5201;48.776;9.128;2023-04-24T13:15:25;13.20;99.90
10312;DHT22;5201;48.776;9.128;2023-04-24T13:17:51;13.50;99.90
10312;DHT22;5201;48.776;9.128;2023-04-24T13:20:17;13.70;99.90
10312;DHT22;5201;48.776;9.128;2023-04-24T13:22:43;13.70;99.90
10312;DHT22;5201;48.776;9.128;2023-04-24T13:25:09;13.90;99.90
10312;DHT22;5201;48.776;9.128;2023-04-24T13:27:35;14.10;99.90
10312;DHT22;5201;48.776;9.128;2023-04-24T13:30:01;14.10;99.90
10312;DHT22;5201;48.776;9.128;2023-04-24T13:32:26;14.30;99.90
10312;DHT22;5201;48.776;9.128;2023-04-24T13:34:53;14.40;99.90
10312;DHT22;5201;48.776;9.128;2023-04-24T13:37:19;13.10;99.90
10312;DHT22;5201;48.776;9.128;2023-04-24T13:39:45;14.30;99.90
10312;DHT22;5201;48.776;9.128;2023-04-24T13:42:10;14.10;99.90
10312;DHT22;5201;48.776;9.128;2023-04-24T13:44:36;13.70;99.90
10312;DHT22;5201;48.776;9.128;2023-04-24T13:47:02;13.10;99.90
10312;DHT22;5201;48.776;9.128;2023-04-24T13:49:27;12.40;99.90
10312;DHT22;5201;48.776;9.128;2023-04-24T13:51:54;12.20;99.90
10312;DHT22;5201;48.776;9.128;2023-04-24T13:54:21;11.90;99.90
10312;DHT22;5201;48.776;9.128;2023-04-24T13:56:48;11.60;99.90
10312;DHT22;5201;48.776;9.128;2023-04-24T13:59:14;11.50;99.90
10312;DHT22;5201;48.776;9.128;2023-04-24T14:01:40;11.70;99.90
10312;DHT22;5201;48.776;9.128;2023-04-24T14:04:05;11.90;99.90
10312;DHT22;5201;48.776;9.128;2023-04-24T14:06:31;9.60;99.90
10312;DHT22;5201;48.776;9.128;2023-04-24T14:08:57;12.00;99.90
10312;DHT22;5201;48.776;9.128;2023-04-24T14:11:22;12.20;99.90
10312;DHT22;5201;48.776;9.128;2023-04-24T14:13:48;12.40;99.90
10312;DHT22;5201;48.776;9.128;2023-04-24T14:16:14;13.00;99.90
10312;DHT22;5201;48.776;9.128;2023-04-24T14:18:43;12.30;99.90
10312;DHT22;5201;48.776;9.128;2023-04-24T14:21:08;12.40;99.90
10312;DHT22;5201;48.776;9.128;2023-04-24T14:23:34;12.50;99.90
10312;DHT22;5201;48.776;9.128;2023-04-24T14:26:00;12.50;99.90
10312;DHT22;5201;48.776;9.128;2023-04-24T14:28:26;12.40;99.90
10312;DHT22;5201;48.776;9.128;2023-04-24T14:30:52;12.20;99.90
10312;DHT22;5201;48.776;9.128;2023-04-24T14:33:18;12.30;99.90
10312;DHT22;5201;48.776;9.128;2023-04-24T14:35:44;12.20;99.90
10312;DHT22;5201;48.776;9.128;2023-04-24T14:38:10;12.80;99.90
10312;DHT22;5201;48.776;9.128;2023-04-24T14:40:35;12.30;99.90
10312;DHT22;5201;48.776;9.128;2023-04-24T14:43:01;12.30;99.90
10312;DHT22;5201;48.776;9.128;2023-04-24T14:45:27;12.20;99.90
10312;DHT22;5201;48.776;9.128;2023-04-24T14:47:53;12.20;99.90
10312;DHT22;5201;48.776;9.128;2023-04-24T14:50:20;12.90;99.90
10312;DHT22;5201;48.776;9.128;2023-04-24T14:52:46;12.30;99.90
10312;DHT22;5201;48.776;9.128;2023-04-24T14:55:12;12.90;99.90
10312;DHT22;5201;48.776;9.128;2023-04-24T14:57:38;12.70;99.90
10312;DHT22;5201;48.776;9.128;2023-04-24T15:00:07;12.70;99.90
10312;DHT22;5201;48.776;9.128;2023-04-24T15:02:35;12.80;99.90
10312;DHT22;5201;48.776;9.128;2023-04-24T15:05:05;13.00;99.90
10312;DHT22;5201;48.776;9.128;2023-04-24T15:07:31;12.90;99.90
10312;DHT22;5201;48.776;9.128;2023-04-24T15:09:57;12.50;99.90
10312;DHT22;5201;48.776;9.128;2023-04-24T15:12:22;12.30;99.90
10312;DHT22;5201;48.776;9.128;2023-04-24T15:14:48;12.30;99.90
10312;DHT22;5201;48.776;9.128;2023-04-24T15:17:14;12.30;99.90
10312;DHT22;5201;48.776;9.128;2023-04-24T15:19:39;12.80;99.90
10312;DHT22;5201;48.776;9.128;2023-04-24T15:22:05;12.30;99.90
10312;DHT22;5201;48.776;9.128;2023-04-24T15:24:31;12.40;99.90
10312;DHT22;5201;48.776;9.128;2023-04-24T15:26:56;12.50;99.90
10312;DHT22;5201;48.776;9.128;2023-04-24T15:29:22;12.70;99.90
10312;DHT22;5201;48.776;9.128;2023-04-24T15:31:48;12.60;99.90
10312;DHT22;5201;48.776;9.128;2023-04-24T15:34:13;13.30;99.90
10312;DHT22;5201;48.776;9.128;2023-04-24T15:36:39;12.60;99.90
10312;DHT22;5201;48.776;9.128;2023-04-24T15:39:05;12.70;99.90
10312;DHT22;5201;48.776;9.128;2023-04-24T15:41:30;12.60;99.90
10312;DHT22;5201;48.776;9.128;2023-04-24T15:43:57;12.50;99.90
10312;DHT22;5201;48.776;9.128;2023-04-24T15:46:23;12.10;99.90
10312;DHT22;5201;48.776;9.128;2023-04-24T15:48:48;12.30;99.90
10312;DHT22;5201;48.776;9.128;2023-04-24T15:51:14;11.80;99.90
10312;DHT22;5201;48.776;9.128;2023-04-24T15:53:40;11.80;99.90
10312;DHT22;5201;48.776;9.128;2023-04-24T15:56:05;11.80;99.90